sensor_id;sensor_type;location;lat;lon;timestamp;pressure;altitude;pressure_sealevel;temperature;humidity
64078;BME280;51039;49.696;10.808;2022-11-23T00:00:34;97028.19;;;2.89;95.01
64078;BME280;51039;49.696;10.808;2022-11-23T00:03:02;97025.94;;;2.86;95.50
64078;BME280;51039;49.696;10.808;2022-11-23T00:05:28;97034.38;;;2.81;94.98
64078;BME280;51039;49.696;10.808;2022-11-23T00:07:54;97032.69;;;2.73;94.74
64078;BME280;51039;49.696;10.808;2022-11-23T00:10:20;97034.00;;;2.69;94.38
64078;BME280;51039;49.696;10.808;2022-11-23T00:12:46;97029.53;;;2.63;94.52
64078;BME280;51039;49.696;10.808;2022-11-23T00:15:12;97023.81;;;2.53;94.73
64078;BME280;51039;49.696;10.808;2022-11-23T00:17:38;97033.19;;;2.47;94.25
64078;BME280;51039;49.696;10.808;2022-11-23T00:20:04;97028.69;;;2.41;94.49
64078;BME280;51039;49.696;10.808;2022-11-23T00:22:31;97026.63;;;2.36;94.62
64078;BME280;51039;49.696;10.808;2022-11-23T00:24:57;97035.47;;;2.35;94.71
64078;BME280;51039;49.696;10.808;2022-11-23T00:27:22;97025.00;;;2.35;95.36
64078;BME280;51039;49.696;10.808;2022-11-23T00:29:47;97029.44;;;2.35;95.47
64078;BME280;51039;49.696;10.808;2022-11-23T00:32:13;97035.56;;;2.27;94.79
64078;BME280;51039;49.696;10.808;2022-11-23T00:34:38;97038.09;;;2.21;94.86
64078;BME280;51039;49.696;10.808;2022-11-23T00:37:03;97034.50;;;2.22;96.14
64078;BME280;51039;49.696;10.808;2022-11-23T00:39:29;97036.09;;;2.23;95.91
64078;BME280;51039;49.696;10.808;2022-11-23T00:41:54;97028.03;;;2.18;95.46
64078;BME280;51039;49.696;10.808;2022-11-23T00:44:19;97027.75;;;2.12;95.35
64078;BME280;51039;49.696;10.808;2022-11-23T00:46:45;97030.53;;;2.11;95.62
64078;BME280;51039;49.696;10.808;2022-11-23T00:49:10;97030.53;;;2.11;96.29
64078;BME280;51039;49.696;10.808;2022-11-23T00:51:35;97026.06;;;2.05;97.67
64078;BME280;51039;49.696;10.808;2022-11-23T00:54:02;97027.03;;;2.04;96.78
64078;BME280;51039;49.696;10.808;2022-11-23T00:56:29;97027.84;;;2.04;96.34
64078;BME280;51039;49.696;10.808;2022-11-23T00:58:55;97033.59;;;2.00;96.33
64078;BME280;51039;49.696;10.808;2022-11-23T01:01:23;97041.00;;;1.96;96.20
64078;BME280;51039;49.696;10.808;2022-11-23T01:03:55;97049.03;;;1.94;96.69
64078;BME280;51039;49.696;10.808;2022-11-23T01:06:26;97042.16;;;1.93;96.53
64078;BME280;51039;49.696;10.808;2022-11-23T01:08:54;97038.47;;;1.88;96.53
64078;BME280;51039;49.696;10.808;2022-11-23T01:11:22;97042.44;;;1.84;96.18
64078;BME280;51039;49.696;10.808;2022-11-23T01:13:49;97040.00;;;1.82;96.12
64078;BME280;51039;49.696;10.808;2022-11-23T01:16:16;97043.97;;;1.78;96.07
64078;BME280;51039;49.696;10.808;2022-11-23T01:18:43;97046.28;;;1.73;96.17
64078;BME280;51039;49.696;10.808;2022-11-23T01:21:08;97048.66;;;1.68;95.81
64078;BME280;51039;49.696;10.808;2022-11-23T01:23:34;97047.72;;;1.61;95.89
64078;BME280;51039;49.696;10.808;2022-11-23T01:26:03;97053.28;;;1.57;95.85
64078;BME280;51039;49.696;10.808;2022-11-23T01:28:31;97051.06;;;1.54;96.05
64078;BME280;51039;49.696;10.808;2022-11-23T01:31:05;97050.44;;;1.52;96.04
64078;BME280;51039;49.696;10.808;2022-11-23T01:33:34;97050.78;;;1.49;95.97
64078;BME280;51039;49.696;10.808;2022-11-23T01:35:59;97056.63;;;1.51;96.77
64078;BME280;51039;49.696;10.808;2022-11-23T01:38:25;97058.44;;;1.51;96.71
64078;BME280;51039;49.696;10.808;2022-11-23T01:40:50;97053.66;;;1.54;97.23
64078;BME280;51039;49.696;10.808;2022-11-23T01:43:16;97060.03;;;1.52;96.48
64078;BME280;51039;49.696;10.808;2022-11-23T01:48:17;97070.75;;;1.57;98.25
64078;BME280;51039;49.696;10.808;2022-11-23T01:50:45;97066.81;;;1.61;98.44
64078;BME280;51039;49.696;10.808;2022-11-23T01:53:14;97071.84;;;1.63;98.50
64078;BME280;51039;49.696;10.808;2022-11-23T01:55:39;97073.53;;;1.55;98.15
64078;BME280;51039;49.696;10.808;2022-11-23T01:58:07;97075.25;;;1.48;98.01
64078;BME280;51039;49.696;10.808;2022-11-23T02:00:34;97085.91;;;1.38;97.14
64078;BME280;51039;49.696;10.808;2022-11-23T02:02:59;97084.31;;;1.37;97.00
64078;BME280;51039;49.696;10.808;2022-11-23T02:05:29;97084.84;;;1.33;96.74
64078;BME280;51039;49.696;10.808;2022-11-23T02:08:01;97081.94;;;1.28;96.44
64078;BME280;51039;49.696;10.808;2022-11-23T02:10:28;97082.28;;;1.25;96.54
64078;BME280;51039;49.696;10.808;2022-11-23T02:12:55;97084.31;;;1.14;96.35
64078;BME280;51039;49.696;10.808;2022-11-23T02:15:24;97090.06;;;1.10;96.24
64078;BME280;51039;49.696;10.808;2022-11-23T02:17:49;97088.78;;;1.06;96.51
64078;BME280;51039;49.696;10.808;2022-11-23T02:20:16;97093.53;;;1.02;96.29
64078;BME280;51039;49.696;10.808;2022-11-23T02:23:17;97089.53;;;0.91;96.23
64078;BME280;51039;49.696;10.808;2022-11-23T02:28:07;97090.06;;;0.87;97.01
64078;BME280;51039;49.696;10.808;2022-11-23T02:30:35;97098.16;;;0.92;97.05
64078;BME280;51039;49.696;10.808;2022-11-23T02:33:03;97097.19;;;0.93;97.16
64078;BME280;51039;49.696;10.808;2022-11-23T02:35:29;97090.63;;;0.97;97.44
64078;BME280;51039;49.696;10.808;2022-11-23T02:37:55;97094.97;;;1.05;97.58
64078;BME280;51039;49.696;10.808;2022-11-23T02:40:28;97088.28;;;1.10;97.45
64078;BME280;51039;49.696;10.808;2022-11-23T02:42:56;97086.75;;;1.16;97.42
64078;BME280;51039;49.696;10.808;2022-11-23T02:46:05;97091.63;;;1.19;97.46
64078;BME280;51039;49.696;10.808;2022-11-23T02:48:11;97092.06;;;1.23;97.56
64078;BME280;51039;49.696;10.808;2022-11-23T02:50:36;97094.81;;;1.29;97.79
64078;BME280;51039;49.696;10.808;2022-11-23T02:53:02;97091.66;;;1.34;98.29
64078;BME280;51039;49.696;10.808;2022-11-23T02:55:27;97087.53;;;1.40;98.51
64078;BME280;51039;49.696;10.808;2022-11-23T02:57:52;97089.63;;;1.44;98.69
64078;BME280;51039;49.696;10.808;2022-11-23T03:00:17;97096.47;;;1.45;98.23
64078;BME280;51039;49.696;10.808;2022-11-23T03:02:43;97096.00;;;1.42;97.98
64078;BME280;51039;49.696;10.808;2022-11-23T03:05:08;97105.00;;;1.39;97.60
64078;BME280;51039;49.696;10.808;2022-11-23T03:07:33;97105.50;;;1.34;97.85
64078;BME280;51039;49.696;10.808;2022-11-23T03:09:59;97106.84;;;1.30;98.08
64078;BME280;51039;49.696;10.808;2022-11-23T03:12:24;97103.63;;;1.28;97.81
64078;BME280;51039;49.696;10.808;2022-11-23T03:14:49;97105.06;;;1.31;98.07
64078;BME280;51039;49.696;10.808;2022-11-23T03:17:15;97104.38;;;1.37;98.01
64078;BME280;51039;49.696;10.808;2022-11-23T03:19:40;97110.06;;;1.41;98.06
64078;BME280;51039;49.696;10.808;2022-11-23T03:22:05;97106.34;;;1.35;97.73
64078;BME280;51039;49.696;10.808;2022-11-23T03:24:31;97108.38;;;1.25;97.83
64078;BME280;51039;49.696;10.808;2022-11-23T03:26:56;97110.16;;;1.24;98.34
64078;BME280;51039;49.696;10.808;2022-11-23T03:29:22;97106.13;;;1.22;98.54
64078;BME280;51039;49.696;10.808;2022-11-23T03:31:50;97110.97;;;1.25;98.94
64078;BME280;51039;49.696;10.808;2022-11-23T03:34:16;97100.59;;;1.40;98.90
64078;BME280;51039;49.696;10.808;2022-11-23T03:36:41;97101.69;;;1.45;98.97
64078;BME280;51039;49.696;10.808;2022-11-23T03:39:07;97104.22;;;1.53;98.81
64078;BME280;51039;49.696;10.808;2022-11-23T03:41:32;97098.19;;;1.53;98.75
64078;BME280;51039;49.696;10.808;2022-11-23T03:43:57;97098.38;;;1.51;99.12
64078;BME280;51039;49.696;10.808;2022-11-23T03:46:23;97101.91;;;1.59;99.33
64078;BME280;51039;49.696;10.808;2022-11-23T03:48:48;97101.75;;;1.60;99.07
64078;BME280;51039;49.696;10.808;2022-11-23T03:51:13;97107.69;;;1.69;99.12
64078;BME280;51039;49.696;10.808;2022-11-23T03:53:39;97115.44;;;1.77;98.89
64078;BME280;51039;49.696;10.808;2022-11-23T03:56:04;97108.25;;;1.79;98.77
64078;BME280;51039;49.696;10.808;2022-11-23T03:58:29;97095.84;;;1.81;98.89
64078;BME280;51039;49.696;10.808;2022-11-23T04:00:55;97094.47;;;1.85;98.99
64078;BME280;51039;49.696;10.808;2022-11-23T04:03:20;97094.75;;;1.90;99.06
64078;BME280;51039;49.696;10.808;2022-11-23T04:05:45;97093.75;;;1.91;99.13
64078;BME280;51039;49.696;10.808;2022-11-23T04:08:11;97095.56;;;1.91;98.56
64078;BME280;51039;49.696;10.808;2022-11-23T04:10:36;97092.22;;;1.82;98.84
64078;BME280;51039;49.696;10.808;2022-11-23T04:13:01;97090.63;;;1.81;99.01
64078;BME280;51039;49.696;10.808;2022-11-23T04:15:27;97088.81;;;1.82;99.34
64078;BME280;51039;49.696;10.808;2022-11-23T04:17:53;97095.63;;;1.83;99.59
64078;BME280;51039;49.696;10.808;2022-11-23T04:20:19;97085.31;;;1.89;99.60
64078;BME280;51039;49.696;10.808;2022-11-23T04:22:44;97086.47;;;2.02;99.44
64078;BME280;51039;49.696;10.808;2022-11-23T04:25:09;97070.06;;;2.08;99.51
64078;BME280;51039;49.696;10.808;2022-11-23T04:27:35;97081.34;;;2.08;99.16
64078;BME280;51039;49.696;10.808;2022-11-23T04:30:00;97068.13;;;2.10;99.46
64078;BME280;51039;49.696;10.808;2022-11-23T04:32:26;97066.94;;;2.12;99.25
64078;BME280;51039;49.696;10.808;2022-11-23T04:34:51;97070.97;;;2.15;99.38
64078;BME280;51039;49.696;10.808;2022-11-23T04:37:16;97074.03;;;2.19;99.72
64078;BME280;51039;49.696;10.808;2022-11-23T04:39:42;97078.53;;;2.25;99.27
64078;BME280;51039;49.696;10.808;2022-11-23T04:42:08;97080.97;;;2.26;99.55
64078;BME280;51039;49.696;10.808;2022-11-23T04:44:35;97088.25;;;2.31;99.49
64078;BME280;51039;49.696;10.808;2022-11-23T04:47:00;97083.59;;;2.26;99.11
64078;BME280;51039;49.696;10.808;2022-11-23T04:49:26;97076.31;;;2.22;99.21
64078;BME280;51039;49.696;10.808;2022-11-23T04:51:51;97091.97;;;2.22;99.20
64078;BME280;51039;49.696;10.808;2022-11-23T04:54:16;97086.53;;;2.23;99.05
64078;BME280;51039;49.696;10.808;2022-11-23T04:56:42;97083.94;;;2.23;99.12
64078;BME280;51039;49.696;10.808;2022-11-23T04:59:07;97083.94;;;2.23;99.20
64078;BME280;51039;49.696;10.808;2022-11-23T05:01:32;97073.59;;;2.15;99.36
64078;BME280;51039;49.696;10.808;2022-11-23T05:03:58;97083.88;;;2.16;99.68
64078;BME280;51039;49.696;10.808;2022-11-23T05:06:23;97080.06;;;2.19;99.53
64078;BME280;51039;49.696;10.808;2022-11-23T05:08:49;97074.03;;;2.19;99.59
64078;BME280;51039;49.696;10.808;2022-11-23T05:11:14;97072.69;;;2.23;99.73
64078;BME280;51039;49.696;10.808;2022-11-23T05:13:40;97071.88;;;2.22;99.59
64078;BME280;51039;49.696;10.808;2022-11-23T05:16:05;97072.69;;;2.23;99.79
64078;BME280;51039;49.696;10.808;2022-11-23T05:18:32;97067.84;;;2.20;100.00
64078;BME280;51039;49.696;10.808;2022-11-23T05:20:57;97071.53;;;2.25;100.00
64078;BME280;51039;49.696;10.808;2022-11-23T05:23:22;97071.16;;;2.28;100.00
64078;BME280;51039;49.696;10.808;2022-11-23T05:25:48;97072.97;;;2.28;100.00
64078;BME280;51039;49.696;10.808;2022-11-23T05:28:14;97066.03;;;2.35;100.00
64078;BME280;51039;49.696;10.808;2022-11-23T05:30:41;97070.88;;;2.38;99.95
64078;BME280;51039;49.696;10.808;2022-11-23T05:33:06;97069.72;;;2.41;99.72
64078;BME280;51039;49.696;10.808;2022-11-23T05:35:32;97067.63;;;2.36;99.85
64078;BME280;51039;49.696;10.808;2022-11-23T05:37:57;97070.50;;;2.41;99.85
64078;BME280;51039;49.696;10.808;2022-11-23T05:40:23;97077.63;;;2.47;99.85
64078;BME280;51039;49.696;10.808;2022-11-23T05:42:52;97077.44;;;2.49;99.46
64078;BME280;51039;49.696;10.808;2022-11-23T05:45:18;97068.88;;;2.40;99.65
64078;BME280;51039;49.696;10.808;2022-11-23T05:47:48;97072.94;;;2.43;100.00
64078;BME280;51039;49.696;10.808;2022-11-23T05:50:17;97070.97;;;2.45;99.86
64078;BME280;51039;49.696;10.808;2022-11-23T05:52:43;97070.56;;;2.48;100.00
64078;BME280;51039;49.696;10.808;2022-11-23T05:55:08;97075.06;;;2.54;100.00
64078;BME280;51039;49.696;10.808;2022-11-23T05:57:34;97068.69;;;2.57;99.59
64078;BME280;51039;49.696;10.808;2022-11-23T05:59:59;97077.78;;;2.61;99.95
64078;BME280;51039;49.696;10.808;2022-11-23T06:02:24;97074.72;;;2.57;100.00
64078;BME280;51039;49.696;10.808;2022-11-23T06:04:49;97073.91;;;2.57;100.00
64078;BME280;51039;49.696;10.808;2022-11-23T06:07:15;97076.75;;;2.62;100.00
64078;BME280;51039;49.696;10.808;2022-11-23T06:09:40;97069.13;;;2.60;99.80
64078;BME280;51039;49.696;10.808;2022-11-23T06:12:05;97074.59;;;2.65;99.67
64078;BME280;51039;49.696;10.808;2022-11-23T06:14:31;97067.75;;;2.64;99.83
64078;BME280;51039;49.696;10.808;2022-11-23T06:16:56;97070.38;;;2.64;99.72
64078;BME280;51039;49.696;10.808;2022-11-23T06:19:21;97074.81;;;2.64;99.79
64078;BME280;51039;49.696;10.808;2022-11-23T06:21:47;97073.16;;;2.63;100.00
64078;BME280;51039;49.696;10.808;2022-11-23T06:24:12;97071.97;;;2.65;100.00
64078;BME280;51039;49.696;10.808;2022-11-23T06:26:38;97070.81;;;2.68;99.71
64078;BME280;51039;49.696;10.808;2022-11-23T06:29:03;97070.56;;;2.63;100.00
64078;BME280;51039;49.696;10.808;2022-11-23T06:31:29;97078.03;;;2.66;100.00
64078;BME280;51039;49.696;10.808;2022-11-23T06:33:54;97074.41;;;2.67;100.00
64078;BME280;51039;49.696;10.808;2022-11-23T06:36:19;97078.72;;;2.74;99.72
64078;BME280;51039;49.696;10.808;2022-11-23T06:38:45;97081.00;;;2.78;100.00
64078;BME280;51039;49.696;10.808;2022-11-23T06:41:10;97085.66;;;2.82;99.72
64078;BME280;51039;49.696;10.808;2022-11-23T06:43:35;97088.72;;;2.86;99.55
64078;BME280;51039;49.696;10.808;2022-11-23T06:46:04;97096.72;;;2.84;99.51
64078;BME280;51039;49.696;10.808;2022-11-23T06:48:31;97094.81;;;2.93;99.53
64078;BME280;51039;49.696;10.808;2022-11-23T06:50:59;97097.81;;;2.90;99.10
64078;BME280;51039;49.696;10.808;2022-11-23T06:53:26;97099.06;;;2.94;99.44
64078;BME280;51039;49.696;10.808;2022-11-23T06:55:52;97101.66;;;2.94;99.15
64078;BME280;51039;49.696;10.808;2022-11-23T06:58:21;97099.31;;;2.99;98.86
64078;BME280;51039;49.696;10.808;2022-11-23T07:00:47;97099.31;;;2.99;98.95
64078;BME280;51039;49.696;10.808;2022-11-23T07:03:17;97101.94;;;3.64;100.00
64078;BME280;51039;49.696;10.808;2022-11-23T07:05:44;97105.06;;;4.09;100.00
64078;BME280;51039;49.696;10.808;2022-11-23T07:08:10;97114.13;;;4.13;96.84
64078;BME280;51039;49.696;10.808;2022-11-23T07:10:35;97111.16;;;3.88;95.83
64078;BME280;51039;49.696;10.808;2022-11-23T07:13:04;97117.94;;;3.54;96.42
64078;BME280;51039;49.696;10.808;2022-11-23T07:15:31;97116.25;;;3.46;97.19
64078;BME280;51039;49.696;10.808;2022-11-23T07:17:56;97118.66;;;3.41;97.14
64078;BME280;51039;49.696;10.808;2022-11-23T07:20:22;97116.78;;;3.35;97.05
64078;BME280;51039;49.696;10.808;2022-11-23T07:22:47;97120.19;;;3.36;96.97
64078;BME280;51039;49.696;10.808;2022-11-23T07:25:13;97129.47;;;3.38;97.08
64078;BME280;51039;49.696;10.808;2022-11-23T07:27:43;97124.63;;;3.35;96.90
64078;BME280;51039;49.696;10.808;2022-11-23T07:30:09;97125.00;;;3.32;96.69
64078;BME280;51039;49.696;10.808;2022-11-23T07:32:35;97129.28;;;3.40;97.34
64078;BME280;51039;49.696;10.808;2022-11-23T07:35:00;97129.03;;;3.34;96.78
64078;BME280;51039;49.696;10.808;2022-11-23T07:37:25;97139.94;;;3.38;97.25
64078;BME280;51039;49.696;10.808;2022-11-23T07:39:51;97140.81;;;3.45;97.07
64078;BME280;51039;49.696;10.808;2022-11-23T07:42:17;97144.94;;;3.54;96.72
64078;BME280;51039;49.696;10.808;2022-11-23T07:44:43;97148.53;;;3.53;96.72
64078;BME280;51039;49.696;10.808;2022-11-23T07:47:09;97145.59;;;3.63;96.28
64078;BME280;51039;49.696;10.808;2022-11-23T07:49:34;97145.78;;;3.62;95.76
64078;BME280;51039;49.696;10.808;2022-11-23T07:51:59;97152.84;;;3.61;96.10
64078;BME280;51039;49.696;10.808;2022-11-23T07:54:24;97149.69;;;3.66;95.88
64078;BME280;51039;49.696;10.808;2022-11-23T07:56:50;97157.91;;;3.63;95.89
64078;BME280;51039;49.696;10.808;2022-11-23T07:59:15;97149.25;;;3.62;96.07
64078;BME280;51039;49.696;10.808;2022-11-23T08:01:40;97155.09;;;3.64;96.19
64078;BME280;51039;49.696;10.808;2022-11-23T08:04:06;97150.81;;;3.57;96.47
64078;BME280;51039;49.696;10.808;2022-11-23T08:06:31;97149.69;;;3.66;96.54
64078;BME280;51039;49.696;10.808;2022-11-23T08:08:56;97148.31;;;3.70;96.02
64078;BME280;51039;49.696;10.808;2022-11-23T08:11:23;97152.34;;;3.72;96.02
64078;BME280;51039;49.696;10.808;2022-11-23T08:13:48;97144.66;;;3.71;96.10
64078;BME280;51039;49.696;10.808;2022-11-23T08:16:14;97148.78;;;3.80;95.97
64078;BME280;51039;49.696;10.808;2022-11-23T08:18:39;97148.84;;;3.87;95.30
64078;BME280;51039;49.696;10.808;2022-11-23T08:21:04;97155.75;;;3.95;95.23
64078;BME280;51039;49.696;10.808;2022-11-23T08:23:30;97156.59;;;4.02;94.88
64078;BME280;51039;49.696;10.808;2022-11-23T08:25:55;97144.09;;;4.04;94.60
64078;BME280;51039;49.696;10.808;2022-11-23T08:28:21;97140.53;;;4.11;94.41
64078;BME280;51039;49.696;10.808;2022-11-23T08:30:46;97150.31;;;4.24;94.36
64078;BME280;51039;49.696;10.808;2022-11-23T08:33:12;97151.25;;;4.45;93.69
64078;BME280;51039;49.696;10.808;2022-11-23T08:35:39;97150.84;;;4.48;92.61
64078;BME280;51039;49.696;10.808;2022-11-23T08:38:06;97149.59;;;4.37;92.57
64078;BME280;51039;49.696;10.808;2022-11-23T08:40:32;97158.06;;;4.39;92.99
64078;BME280;51039;49.696;10.808;2022-11-23T08:42:58;97157.03;;;4.33;92.99
64078;BME280;51039;49.696;10.808;2022-11-23T08:45:24;97159.91;;;4.45;92.75
64078;BME280;51039;49.696;10.808;2022-11-23T08:47:49;97152.41;;;4.42;91.76
64078;BME280;51039;49.696;10.808;2022-11-23T08:50:15;97157.16;;;4.60;92.47
64078;BME280;51039;49.696;10.808;2022-11-23T08:52:41;97154.53;;;4.60;91.91
64078;BME280;51039;49.696;10.808;2022-11-23T08:55:06;97160.53;;;4.89;91.59
64078;BME280;51039;49.696;10.808;2022-11-23T08:57:32;97158.72;;;4.96;90.48
64078;BME280;51039;49.696;10.808;2022-11-23T08:59:57;97154.91;;;5.05;90.27
64078;BME280;51039;49.696;10.808;2022-11-23T09:02:23;97161.25;;;5.24;89.43
64078;BME280;51039;49.696;10.808;2022-11-23T09:04:48;97161.66;;;5.28;88.81
64078;BME280;51039;49.696;10.808;2022-11-23T09:07:13;97163.72;;;5.39;88.15
64078;BME280;51039;49.696;10.808;2022-11-23T09:09:39;97159.25;;;5.46;88.22
64078;BME280;51039;49.696;10.808;2022-11-23T09:12:04;97160.69;;;5.49;87.29
64078;BME280;51039;49.696;10.808;2022-11-23T09:14:30;97167.75;;;5.62;87.31
64078;BME280;51039;49.696;10.808;2022-11-23T09:16:55;97176.84;;;5.59;87.05
64078;BME280;51039;49.696;10.808;2022-11-23T09:19:20;97173.44;;;5.72;86.62
64078;BME280;51039;49.696;10.808;2022-11-23T09:21:46;97170.19;;;5.63;85.39
64078;BME280;51039;49.696;10.808;2022-11-23T09:24:12;97168.94;;;5.39;87.16
64078;BME280;51039;49.696;10.808;2022-11-23T09:26:38;97165.97;;;5.76;86.64
64078;BME280;51039;49.696;10.808;2022-11-23T09:29:04;97162.56;;;6.02;85.84
64078;BME280;51039;49.696;10.808;2022-11-23T09:31:31;97167.41;;;6.18;85.45
64078;BME280;51039;49.696;10.808;2022-11-23T09:33:56;97175.50;;;6.17;84.57
64078;BME280;51039;49.696;10.808;2022-11-23T09:36:21;97167.59;;;6.30;83.86
64078;BME280;51039;49.696;10.808;2022-11-23T09:38:47;97160.88;;;6.41;83.73
64078;BME280;51039;49.696;10.808;2022-11-23T09:44:04;97156.25;;;6.95;85.13
64078;BME280;51039;49.696;10.808;2022-11-23T09:46:58;97165.34;;;7.12;81.18
64078;BME280;51039;49.696;10.808;2022-11-23T09:52:21;97159.94;;;6.87;80.12
64078;BME280;51039;49.696;10.808;2022-11-23T09:54:48;97154.16;;;7.17;80.29
64078;BME280;51039;49.696;10.808;2022-11-23T09:57:18;97156.28;;;7.33;79.99
64078;BME280;51039;49.696;10.808;2022-11-23T09:59:53;97154.50;;;7.27;78.10
64078;BME280;51039;49.696;10.808;2022-11-23T10:02:24;97145.66;;;7.15;78.79
64078;BME280;51039;49.696;10.808;2022-11-23T10:04:52;97154.75;;;7.19;79.52
64078;BME280;51039;49.696;10.808;2022-11-23T10:20:42;97146.25;;;7.80;76.69
64078;BME280;51039;49.696;10.808;2022-11-23T10:26:13;97143.13;;;8.15;75.69
64078;BME280;51039;49.696;10.808;2022-11-23T10:28:41;97141.22;;;8.22;75.44
64078;BME280;51039;49.696;10.808;2022-11-23T10:31:18;97138.22;;;8.19;74.44
64078;BME280;51039;49.696;10.808;2022-11-23T10:33:57;97125.28;;;8.36;74.48
64078;BME280;51039;49.696;10.808;2022-11-23T10:36:28;97123.03;;;8.58;73.84
64078;BME280;51039;49.696;10.808;2022-11-23T10:38:55;97129.84;;;8.65;73.56
64078;BME280;51039;49.696;10.808;2022-11-23T10:41:24;97121.50;;;8.50;74.12
64078;BME280;51039;49.696;10.808;2022-11-23T10:46:44;97118.75;;;8.75;72.54
64078;BME280;51039;49.696;10.808;2022-11-23T10:51:48;97117.47;;;8.48;73.88
64078;BME280;51039;49.696;10.808;2022-11-23T10:54:17;97112.22;;;8.41;73.83
64078;BME280;51039;49.696;10.808;2022-11-23T10:56:49;97115.91;;;8.77;73.63
64078;BME280;51039;49.696;10.808;2022-11-23T11:02:28;97113.06;;;8.78;73.65
64078;BME280;51039;49.696;10.808;2022-11-23T11:04:47;97117.97;;;8.75;72.22
64078;BME280;51039;49.696;10.808;2022-11-23T11:10:00;97120.88;;;8.85;71.42
64078;BME280;51039;49.696;10.808;2022-11-23T11:12:27;97114.03;;;9.14;71.42
64078;BME280;51039;49.696;10.808;2022-11-23T11:17:33;97113.44;;;9.12;71.18
64078;BME280;51039;49.696;10.808;2022-11-23T11:20:00;97110.34;;;9.46;75.57
64078;BME280;51039;49.696;10.808;2022-11-23T11:22:45;97104.75;;;9.77;69.90
64078;BME280;51039;49.696;10.808;2022-11-23T11:25:17;97104.09;;;9.40;70.33
64078;BME280;51039;49.696;10.808;2022-11-23T11:27:53;97102.41;;;9.46;69.00
64078;BME280;51039;49.696;10.808;2022-11-23T11:30:21;97102.94;;;9.90;71.20
64078;BME280;51039;49.696;10.808;2022-11-23T11:38:13;97103.16;;;10.00;68.12
64078;BME280;51039;49.696;10.808;2022-11-23T11:43:20;97089.81;;;9.95;68.02
64078;BME280;51039;49.696;10.808;2022-11-23T11:45:59;97091.06;;;9.69;68.56
64078;BME280;51039;49.696;10.808;2022-11-23T11:51:03;97088.56;;;9.97;69.26
64078;BME280;51039;49.696;10.808;2022-11-23T11:53:32;97087.84;;;10.49;66.07
64078;BME280;51039;49.696;10.808;2022-11-23T11:56:35;97083.34;;;10.50;65.52
64078;BME280;51039;49.696;10.808;2022-11-23T12:01:43;97076.63;;;10.71;65.04
64078;BME280;51039;49.696;10.808;2022-11-23T12:04:34;97079.56;;;10.86;65.67
64078;BME280;51039;49.696;10.808;2022-11-23T12:12:53;97084.41;;;9.78;69.21
64078;BME280;51039;49.696;10.808;2022-11-23T12:15:21;97077.63;;;10.17;67.82
64078;BME280;51039;49.696;10.808;2022-11-23T12:31:18;97070.94;;;10.38;66.38
64078;BME280;51039;49.696;10.808;2022-11-23T12:36:30;97069.34;;;10.02;68.32
64078;BME280;51039;49.696;10.808;2022-11-23T12:49:47;97054.63;;;9.82;68.36
64078;BME280;51039;49.696;10.808;2022-11-23T12:57:22;97042.41;;;9.58;68.63
64078;BME280;51039;49.696;10.808;2022-11-23T12:59:57;97046.25;;;9.74;68.20
64078;BME280;51039;49.696;10.808;2022-11-23T13:05:22;97039.78;;;9.58;68.08
64078;BME280;51039;49.696;10.808;2022-11-23T13:16:49;97034.34;;;9.29;68.27
64078;BME280;51039;49.696;10.808;2022-11-23T13:19:50;97033.66;;;9.34;68.13
64078;BME280;51039;49.696;10.808;2022-11-23T13:22:25;97034.47;;;9.34;69.30
64078;BME280;51039;49.696;10.808;2022-11-23T13:27:41;97026.41;;;9.29;69.48
64078;BME280;51039;49.696;10.808;2022-11-23T13:30:30;97030.31;;;9.27;69.75
64078;BME280;51039;49.696;10.808;2022-11-23T13:40:38;97023.97;;;9.16;71.27
64078;BME280;51039;49.696;10.808;2022-11-23T13:45:41;97022.28;;;9.33;70.08
64078;BME280;51039;49.696;10.808;2022-11-23T13:50:33;97002.22;;;9.02;69.95
64078;BME280;51039;49.696;10.808;2022-11-23T13:52:59;97005.66;;;9.02;70.48
64078;BME280;51039;49.696;10.808;2022-11-23T13:55:35;97001.97;;;8.92;71.15
64078;BME280;51039;49.696;10.808;2022-11-23T14:12:24;96992.16;;;8.69;72.20
64078;BME280;51039;49.696;10.808;2022-11-23T14:23:07;97007.53;;;8.72;72.60
64078;BME280;51039;49.696;10.808;2022-11-23T14:25:43;97004.13;;;8.83;72.18
64078;BME280;51039;49.696;10.808;2022-11-23T14:28:47;97000.53;;;8.77;72.05
64078;BME280;51039;49.696;10.808;2022-11-23T14:34:19;97008.06;;;8.62;73.05
64078;BME280;51039;49.696;10.808;2022-11-23T14:42:27;97008.59;;;8.34;73.84
64078;BME280;51039;49.696;10.808;2022-11-23T14:44:54;97012.13;;;8.28;74.54
64078;BME280;51039;49.696;10.808;2022-11-23T14:47:25;97007.00;;;8.14;74.53
64078;BME280;51039;49.696;10.808;2022-11-23T14:49:52;97010.00;;;7.99;74.96
64078;BME280;51039;49.696;10.808;2022-11-23T14:52:20;97012.84;;;7.98;75.42
64078;BME280;51039;49.696;10.808;2022-11-23T14:54:48;97007.50;;;7.86;75.41
64078;BME280;51039;49.696;10.808;2022-11-23T14:57:14;97010.34;;;7.66;75.83
64078;BME280;51039;49.696;10.808;2022-11-23T14:59:41;97010.19;;;7.61;78.17
64078;BME280;51039;49.696;10.808;2022-11-23T15:05:25;97005.75;;;7.80;76.31
64078;BME280;51039;49.696;10.808;2022-11-23T15:13:14;96999.06;;;7.59;77.16
64078;BME280;51039;49.696;10.808;2022-11-23T15:15:43;96996.53;;;7.45;76.63
64078;BME280;51039;49.696;10.808;2022-11-23T15:18:09;96994.84;;;7.51;77.74
64078;BME280;51039;49.696;10.808;2022-11-23T15:20:40;96998.84;;;7.35;76.90
64078;BME280;51039;49.696;10.808;2022-11-23T15:23:21;96997.66;;;7.31;76.78
64078;BME280;51039;49.696;10.808;2022-11-23T15:25:52;96998.19;;;7.15;77.47
64078;BME280;51039;49.696;10.808;2022-11-23T15:28:22;96997.00;;;7.11;77.35
64078;BME280;51039;49.696;10.808;2022-11-23T15:30:51;96991.84;;;6.97;77.75
64078;BME280;51039;49.696;10.808;2022-11-23T15:33:18;96991.88;;;6.91;77.71
64078;BME280;51039;49.696;10.808;2022-11-23T15:35:45;96995.75;;;6.88;77.96
64078;BME280;51039;49.696;10.808;2022-11-23T15:38:12;96991.94;;;6.84;77.31
64078;BME280;51039;49.696;10.808;2022-11-23T15:40:40;96981.22;;;6.79;78.18